createdAt,value
2022-09-28T00:01:14.533Z,18.20
2022-09-28T00:03:45.967Z,17.50
2022-09-28T00:06:18.854Z,18.50
2022-09-28T00:08:50.851Z,18.80
2022-09-28T00:11:23.571Z,17.90
2022-09-28T00:13:57.892Z,17.60
2022-09-28T00:16:31.615Z,16.80
2022-09-28T00:19:03.079Z,14.20
2022-09-28T00:21:35.834Z,14.30
2022-09-28T00:24:16.089Z,14.90
2022-09-28T00:26:52.717Z,13.50
2022-09-28T00:29:26.666Z,13.60
2022-09-28T00:32:00.628Z,12.00
2022-09-28T00:34:34.621Z,10.80
2022-09-28T00:37:08.873Z,10.90
2022-09-28T00:39:41.635Z,9.50
2022-09-28T00:42:18.581Z,9.40
2022-09-28T00:44:53.203Z,8.30
2022-09-28T00:47:43.788Z,6.70
2022-09-28T00:50:20.927Z,5.80
2022-09-28T00:52:55.519Z,6.00
2022-09-28T00:55:32.837Z,4.90
2022-09-28T00:58:06.850Z,5.10
2022-09-28T01:00:40.756Z,4.20
2022-09-28T01:03:13.799Z,4.00
2022-09-28T01:05:46.369Z,3.80
2022-09-28T01:08:21.222Z,4.00
2022-09-28T01:10:52.949Z,4.10
2022-09-28T01:13:25.570Z,4.10
2022-09-28T01:16:08.348Z,3.70
2022-09-28T01:18:48.846Z,3.20
2022-09-28T01:21:22.507Z,3.50
2022-09-28T01:24:23.448Z,4.00
2022-09-28T01:27:15.388Z,3.40
2022-09-28T01:29:53.588Z,3.80
2022-09-28T01:32:37.771Z,3.60
2022-09-28T01:35:15.072Z,3.00
2022-09-28T01:37:53.091Z,3.70
2022-09-28T01:40:27.750Z,3.40
2022-09-28T01:43:03.547Z,3.30
2022-09-28T01:45:43.451Z,3.40
2022-09-28T01:48:18.832Z,3.70
2022-09-28T01:50:53.713Z,3.00
2022-09-28T01:53:30.066Z,3.20
2022-09-28T01:56:09.857Z,2.90
2022-09-28T01:58:44.878Z,3.30
2022-09-28T02:03:54.880Z,2.80
2022-09-28T02:06:32.037Z,2.90
2022-09-28T02:09:10.168Z,2.70
2022-09-28T02:11:51.604Z,2.80
2022-09-28T02:14:24.274Z,2.30
2022-09-28T02:16:57.678Z,3.00
2022-09-28T02:19:33.614Z,2.70
2022-09-28T02:22:13.148Z,3.00
2022-09-28T02:24:51.879Z,2.80
2022-09-28T02:27:35.535Z,2.80
2022-09-28T02:30:08.715Z,2.80
2022-09-28T02:32:43.630Z,2.50
2022-09-28T02:35:18.070Z,2.70
2022-09-28T02:37:50.573Z,3.10
2022-09-28T02:40:25.299Z,3.10
2022-09-28T02:43:03.225Z,3.50
2022-09-28T02:45:49.929Z,2.70
2022-09-28T02:48:43.711Z,3.10
2022-09-28T02:51:28.476Z,3.30
2022-09-28T02:54:29.848Z,2.60
2022-09-28T02:57:14.675Z,2.90
2022-09-28T02:59:55.026Z,3.50
2022-09-28T03:02:33.007Z,3.60
2022-09-28T03:05:20.764Z,3.20
2022-09-28T03:07:59.595Z,3.00
2022-09-28T03:10:38.528Z,3.40
2022-09-28T03:13:10.334Z,3.00
2022-09-28T03:15:46.451Z,3.70
2022-09-28T03:18:19.528Z,4.20
2022-09-28T03:20:50.686Z,3.70
2022-09-28T03:23:25.437Z,4.20
2022-09-28T03:28:26.580Z,4.50
2022-09-28T03:30:57.615Z,4.60
2022-09-28T03:33:28.633Z,5.10
2022-09-28T03:35:59.556Z,5.30
2022-09-28T03:38:30.574Z,5.20
2022-09-28T03:41:02.385Z,5.10
2022-09-28T03:43:37.876Z,6.30
2022-09-28T03:46:09.229Z,6.80
2022-09-28T03:51:15.020Z,7.00
2022-09-28T03:53:45.975Z,8.40
2022-09-28T03:56:18.489Z,7.80
2022-09-28T03:58:50.013Z,7.60
2022-09-28T04:01:20.929Z,8.30
2022-09-28T04:03:56.266Z,8.00
2022-09-28T04:06:28.106Z,7.80
2022-09-28T04:08:59.593Z,9.10
2022-09-28T04:11:47.623Z,9.50
2022-09-28T04:14:21.950Z,9.30
2022-09-28T04:16:55.005Z,8.90
2022-09-28T04:19:32.576Z,8.80
2022-09-28T04:22:29.771Z,10.10
2022-09-28T04:25:00.858Z,9.90
2022-09-28T04:27:53.147Z,10.80
2022-09-28T04:30:24.786Z,11.50
2022-09-28T04:32:56.759Z,11.50
2022-09-28T04:35:28.111Z,11.80
2022-09-28T04:37:59.076Z,10.90
2022-09-28T04:40:31.144Z,12.70
2022-09-28T04:43:02.298Z,12.40
2022-09-28T04:45:35.809Z,14.30
2022-09-28T04:48:12.165Z,13.10
2022-09-28T04:51:03.350Z,11.90
2022-09-28T04:53:35.176Z,12.00
2022-09-28T04:56:09.023Z,11.50
2022-09-28T04:58:42.242Z,12.20
2022-09-28T05:01:17.699Z,11.30
2022-09-28T05:04:04.138Z,12.30
2022-09-28T05:06:44.067Z,11.80
2022-09-28T05:09:16.632Z,12.30
2022-09-28T05:11:50.119Z,11.30
2022-09-28T05:14:23.059Z,11.00
2022-09-28T05:16:55.250Z,13.40
2022-09-28T05:19:26.188Z,13.70
2022-09-28T05:22:00.547Z,13.00
2022-09-28T05:24:31.445Z,12.40
2022-09-28T05:27:03.756Z,11.30
2022-09-28T05:29:34.663Z,11.80
2022-09-28T05:32:23.917Z,10.90
2022-09-28T05:35:07.300Z,10.40
2022-09-28T05:37:45.422Z,11.30
2022-09-28T05:40:16.456Z,11.00
2022-09-28T05:42:47.545Z,10.70
2022-09-28T05:45:18.573Z,11.20
2022-09-28T05:47:51.068Z,11.50
2022-09-28T05:50:25.059Z,11.20
2022-09-28T05:53:03.179Z,17.60
2022-09-28T05:55:34.512Z,13.70
2022-09-28T05:58:07.668Z,13.80
2022-09-28T06:00:39.013Z,13.10
2022-09-28T06:03:12.798Z,11.70
2022-09-28T06:05:43.819Z,11.50
2022-09-28T06:08:14.946Z,11.20
2022-09-28T06:10:49.669Z,11.90
2022-09-28T06:13:20.823Z,11.10
2022-09-28T06:15:51.824Z,12.90
2022-09-28T06:18:23.510Z,12.00
2022-09-28T06:24:01.485Z,12.40
2022-09-28T06:26:32.683Z,10.90
2022-09-28T06:29:03.673Z,12.40
2022-09-28T06:31:34.678Z,11.30
2022-09-28T06:34:05.642Z,11.30
2022-09-28T06:36:36.555Z,12.20
2022-09-28T06:39:08.101Z,11.40
2022-09-28T06:41:40.129Z,11.20
2022-09-28T06:44:18.346Z,11.70
2022-09-28T06:47:08.349Z,10.80
2022-09-28T06:49:56.901Z,11.30
2022-09-28T06:52:55.546Z,10.90
2022-09-28T06:55:49.144Z,10.10
2022-09-28T06:58:22.586Z,10.20
2022-09-28T07:00:56.200Z,10.20
2022-09-28T07:03:27.527Z,10.50
2022-09-28T07:06:01.553Z,9.40
2022-09-28T07:09:01.621Z,10.40
2022-09-28T07:12:04.925Z,9.30
2022-09-28T07:14:48.321Z,9.60
2022-09-28T07:17:20.133Z,9.30
2022-09-28T07:19:53.169Z,10.70
2022-09-28T07:22:39.430Z,10.70
2022-09-28T07:25:14.407Z,10.00
2022-09-28T07:28:05.180Z,10.20
2022-09-28T07:30:59.440Z,14.40
2022-09-28T07:33:56.554Z,9.90
2022-09-28T07:36:35.463Z,9.00
2022-09-28T07:39:07.405Z,9.40
2022-09-28T07:41:39.870Z,9.00
2022-09-28T07:44:13.938Z,8.90
2022-09-28T07:46:45.398Z,9.30
2022-09-28T07:49:24.977Z,9.20
2022-09-28T07:52:18.823Z,8.60
2022-09-28T07:55:10.453Z,8.40
2022-09-28T07:58:01.896Z,8.70
2022-09-28T08:00:48.562Z,8.70
2022-09-28T08:03:22.451Z,8.10
2022-09-28T08:05:54.287Z,8.60
2022-09-28T08:08:25.285Z,7.70
2022-09-28T08:10:56.896Z,6.70
2022-09-28T08:13:46.802Z,5.60
2022-09-28T08:19:18.560Z,5.90
2022-09-28T08:21:51.102Z,6.40
2022-09-28T08:24:24.767Z,7.40
2022-09-28T08:26:57.313Z,7.80
2022-09-28T08:29:31.981Z,7.30
2022-09-28T08:32:21.658Z,5.90
2022-09-28T08:35:22.386Z,5.90
2022-09-28T08:38:13.266Z,5.90
2022-09-28T08:41:16.826Z,5.80
2022-09-28T08:44:33.472Z,5.70
2022-09-28T08:47:44.217Z,5.20
2022-09-28T08:50:51.260Z,5.50
2022-09-28T08:53:41.933Z,5.40
2022-09-28T08:56:29.213Z,5.20
2022-09-28T08:59:04.649Z,5.00
2022-09-28T09:01:41.886Z,5.70
2022-09-28T09:04:21.344Z,5.10
2022-09-28T09:07:26.858Z,5.40
2022-09-28T09:10:21.040Z,4.90
2022-09-28T09:13:04.361Z,4.50
2022-09-28T09:15:51.781Z,4.70
2022-09-28T09:18:45.637Z,5.30
2022-09-28T09:21:48.864Z,4.90
2022-09-28T09:24:28.405Z,4.70
2022-09-28T09:27:17.803Z,5.10
2022-09-28T09:30:05.061Z,4.80
2022-09-28T09:32:57.849Z,4.40
2022-09-28T09:36:02.518Z,4.50
2022-09-28T09:39:04.338Z,5.10
2022-09-28T09:42:08.545Z,4.40
2022-09-28T09:45:26.146Z,4.40
2022-09-28T09:48:22.319Z,4.30
2022-09-28T09:50:58.561Z,5.80
2022-09-28T09:53:38.511Z,4.10
2022-09-28T09:56:17.644Z,3.80
2022-09-28T09:59:13.010Z,3.80
2022-09-28T10:02:21.740Z,4.00
2022-09-28T10:05:02.712Z,4.10
2022-09-28T10:07:44.588Z,3.50
2022-09-28T10:10:22.982Z,3.80
2022-09-28T10:12:57.690Z,4.00
2022-09-28T10:15:30.667Z,3.70
2022-09-28T10:18:21.646Z,3.10
2022-09-28T10:21:16.203Z,3.10
2022-09-28T10:24:02.882Z,3.50
2022-09-28T10:26:38.773Z,2.70
2022-09-28T10:29:17.975Z,3.00
2022-09-28T10:31:50.764Z,2.80
2022-09-28T10:34:36.868Z,2.50
2022-09-28T10:37:13.106Z,3.00
2022-09-28T10:40:03.602Z,2.50
2022-09-28T10:42:38.279Z,2.70
2022-09-28T10:45:23.569Z,2.70
2022-09-28T10:48:02.014Z,3.10
2022-09-28T10:50:34.484Z,3.00
2022-09-28T10:53:21.601Z,2.90
2022-09-28T10:56:23.188Z,3.00
2022-09-28T10:59:26.223Z,3.10
2022-09-28T11:02:00.323Z,3.10
2022-09-28T11:04:41.665Z,2.90
2022-09-28T11:07:20.799Z,3.60
2022-09-28T11:09:55.011Z,3.30
2022-09-28T11:12:28.396Z,3.70
2022-09-28T11:15:03.021Z,3.10
2022-09-28T11:17:39.836Z,2.90
2022-09-28T11:20:31.128Z,4.90
2022-09-28T11:23:20.686Z,3.70
2022-09-28T11:26:07.111Z,2.80
2022-09-28T11:28:42.187Z,3.20
2022-09-28T11:31:31.301Z,3.50
2022-09-28T11:34:31.107Z,3.10
2022-09-28T11:37:36.649Z,3.00
2022-09-28T11:40:25.130Z,6.30
2022-09-28T11:43:12.325Z,4.90
2022-09-28T11:45:56.294Z,3.20
2022-09-28T11:48:40.126Z,2.70
2022-09-28T11:51:18.079Z,3.10
2022-09-28T11:53:56.308Z,3.10
2022-09-28T11:56:37.228Z,3.30
2022-09-28T11:59:15.470Z,3.20
2022-09-28T12:01:54.564Z,5.10
2022-09-28T12:04:53.587Z,3.40
2022-09-28T12:07:54.910Z,3.40
2022-09-28T12:11:21.156Z,7.30
2022-09-28T12:14:22.672Z,3.20
2022-09-28T12:17:06.869Z,3.00
2022-09-28T12:22:33.359Z,2.20
2022-09-28T12:25:07.897Z,1.60
2022-09-28T12:27:49.145Z,2.10
2022-09-28T12:30:23.027Z,1.70
2022-09-28T12:33:00.382Z,2.90
2022-09-28T12:35:46.115Z,2.60
2022-09-28T12:38:35.937Z,2.00
2022-09-28T12:41:17.537Z,1.90
2022-09-28T12:44:10.944Z,2.00
2022-09-28T12:46:59.774Z,3.50
2022-09-28T12:50:37.138Z,2.50
2022-09-28T12:56:48.225Z,2.00
2022-09-28T13:00:04.813Z,2.40
2022-09-28T13:02:52.138Z,2.20
2022-09-28T13:05:43.088Z,2.20
2022-09-28T13:08:20.755Z,2.60
2022-09-28T13:11:07.916Z,2.20
2022-09-28T13:13:53.107Z,2.30
2022-09-28T13:16:31.611Z,2.60
2022-09-28T13:19:10.258Z,2.90
2022-09-28T13:21:47.572Z,2.60
2022-09-28T13:24:32.547Z,2.80
2022-09-28T13:27:15.566Z,2.80
2022-09-28T13:30:06.645Z,7.70
2022-09-28T13:32:39.393Z,3.60
2022-09-28T13:35:19.466Z,3.30
2022-09-28T13:38:10.809Z,3.50
2022-09-28T13:41:17.031Z,3.40
2022-09-28T13:44:13.174Z,3.40
2022-09-28T13:46:51.986Z,3.80
2022-09-28T13:49:32.676Z,2.90
2022-09-28T13:52:11.353Z,3.20
2022-09-28T13:54:57.859Z,3.30
2022-09-28T13:57:35.864Z,3.20
2022-09-28T14:00:18.967Z,3.40
2022-09-28T14:02:58.917Z,3.50
2022-09-28T14:05:47.005Z,6.00
2022-09-28T14:08:38.627Z,3.80
2022-09-28T14:11:57.966Z,3.20
2022-09-28T14:14:45.883Z,3.30
2022-09-28T14:17:51.342Z,3.30
2022-09-28T14:20:27.400Z,3.10
2022-09-28T14:23:28.491Z,3.40
2022-09-28T14:26:29.033Z,2.90
2022-09-28T14:29:13.061Z,3.30
2022-09-28T14:31:45.677Z,3.10
2022-09-28T14:34:38.472Z,3.00
2022-09-28T14:37:40.060Z,3.30
2022-09-28T14:40:40.227Z,2.90
2022-09-28T14:43:28.700Z,2.90
2022-09-28T14:46:31.307Z,4.20
2022-09-28T14:49:04.103Z,2.70
2022-09-28T14:52:04.833Z,2.70
2022-09-28T14:54:57.023Z,2.60
2022-09-28T14:57:32.627Z,2.70
2022-09-28T15:00:17.496Z,2.80
2022-09-28T15:02:52.802Z,2.70
2022-09-28T15:05:33.531Z,8.90
2022-09-28T15:08:07.706Z,3.90
2022-09-28T15:10:42.162Z,2.90
2022-09-28T15:13:22.258Z,2.50
2022-09-28T15:15:56.867Z,2.60
2022-09-28T15:18:52.061Z,2.70
2022-09-28T15:21:24.452Z,2.40
2022-09-28T15:23:55.403Z,2.50
2022-09-28T15:26:31.179Z,2.50
2022-09-28T15:29:04.165Z,2.90
2022-09-28T15:31:38.402Z,2.70
2022-09-28T15:34:47.528Z,4.10
2022-09-28T15:37:22.774Z,2.80
2022-09-28T15:39:56.121Z,2.70
2022-09-28T15:42:27.960Z,2.60
2022-09-28T15:45:28.799Z,2.90
2022-09-28T15:48:21.267Z,5.00
2022-09-28T15:51:10.495Z,3.40
2022-09-28T15:53:50.155Z,3.00
2022-09-28T15:56:21.393Z,3.00
2022-09-28T15:59:12.164Z,3.50
2022-09-28T16:01:44.131Z,7.40
2022-09-28T16:04:39.766Z,9.10
2022-09-28T16:07:39.684Z,4.10
2022-09-28T16:10:37.759Z,3.20
2022-09-28T16:13:20.242Z,3.00
2022-09-28T16:16:00.030Z,2.80
2022-09-28T16:18:32.524Z,2.90
2022-09-28T16:21:31.717Z,2.60
2022-09-28T16:24:03.406Z,2.80
2022-09-28T16:26:39.100Z,3.00
2022-09-28T16:29:25.844Z,2.70
2022-09-28T16:31:56.881Z,3.10
2022-09-28T16:34:30.878Z,3.70
2022-09-28T16:37:38.272Z,3.30
2022-09-28T16:40:11.539Z,7.70
2022-09-28T16:42:48.923Z,6.00
2022-09-28T16:45:32.472Z,4.00
2022-09-28T16:48:06.072Z,3.60
2022-09-28T16:51:15.907Z,3.80
2022-09-28T16:54:05.551Z,3.50
2022-09-28T16:56:39.184Z,3.60
2022-09-28T16:59:13.966Z,3.20
2022-09-28T17:01:49.413Z,3.60
2022-09-28T17:04:20.538Z,3.30
2022-09-28T17:07:18.059Z,3.50
2022-09-28T17:10:06.110Z,2.60
2022-09-28T17:12:42.553Z,3.40
2022-09-28T17:15:19.756Z,3.60
2022-09-28T17:17:51.305Z,3.30
2022-09-28T17:20:26.386Z,4.60
2022-09-28T17:25:30.220Z,3.80
2022-09-28T17:28:01.928Z,3.50
2022-09-28T17:30:33.243Z,3.50
2022-09-28T17:33:05.708Z,3.60
2022-09-28T17:35:39.729Z,3.70
2022-09-28T17:38:12.794Z,6.50
2022-09-28T17:40:45.585Z,16.60
2022-09-28T17:43:16.692Z,4.90
2022-09-28T17:45:55.416Z,4.50
2022-09-28T17:48:51.178Z,3.90
2022-09-28T17:51:26.414Z,3.90
2022-09-28T17:56:32.087Z,3.60
2022-09-28T17:59:12.342Z,3.90
2022-09-28T18:02:03.316Z,4.30
2022-09-28T18:04:51.159Z,7.90
2022-09-28T18:07:22.986Z,7.00
2022-09-28T18:09:58.428Z,7.30
2022-09-28T18:12:32.190Z,6.10
2022-09-28T18:15:03.443Z,5.40
2022-09-28T18:17:52.747Z,6.10
2022-09-28T18:20:43.651Z,6.40
2022-09-28T18:23:14.774Z,6.20
2022-09-28T18:25:46.777Z,4.90
2022-09-28T18:28:48.448Z,5.30
2022-09-28T18:32:07.269Z,5.10
2022-09-28T18:34:40.676Z,5.40
2022-09-28T18:37:14.434Z,12.50
2022-09-28T18:40:33.069Z,7.60
2022-09-28T18:43:05.494Z,6.10
2022-09-28T18:45:38.264Z,5.30
2022-09-28T18:48:44.378Z,5.60
2022-09-28T18:51:37.396Z,4.80
2022-09-28T18:54:08.467Z,4.40
2022-09-28T18:56:42.124Z,4.20
2022-09-28T18:59:14.371Z,4.60
2022-09-28T19:01:51.645Z,4.40
2022-09-28T19:04:22.924Z,4.70
2022-09-28T19:06:54.532Z,5.30
2022-09-28T19:09:26.619Z,4.20
2022-09-28T19:11:57.840Z,3.60
2022-09-28T19:14:29.035Z,3.80
2022-09-28T19:17:00.342Z,3.50
2022-09-28T19:19:31.841Z,4.20
2022-09-28T19:22:02.971Z,4.10
2022-09-28T19:24:34.543Z,4.00
2022-09-28T19:27:06.009Z,4.00
2022-09-28T19:29:37.961Z,4.20
2022-09-28T19:32:09.039Z,3.80
2022-09-28T19:34:40.182Z,3.40
2022-09-28T19:37:11.703Z,3.60
2022-09-28T19:39:43.157Z,3.20
2022-09-28T19:42:14.214Z,3.00
2022-09-28T19:44:46.504Z,3.10
2022-09-28T19:47:21.687Z,6.40
2022-09-28T19:49:52.963Z,4.40
2022-09-28T19:52:24.332Z,2.90
2022-09-28T19:54:56.918Z,3.10
2022-09-28T19:57:30.572Z,2.70
2022-09-28T20:00:03.529Z,3.00
2022-09-28T20:02:38.003Z,4.40
2022-09-28T20:05:10.107Z,3.60
2022-09-28T20:07:41.334Z,2.70
2022-09-28T20:10:13.151Z,2.70
2022-09-28T20:12:44.422Z,5.00
2022-09-28T20:15:16.673Z,2.40
2022-09-28T20:17:47.823Z,2.20
2022-09-28T20:20:19.293Z,2.00
2022-09-28T20:22:50.887Z,2.30
2022-09-28T20:25:21.984Z,2.30
2022-09-28T20:27:53.238Z,2.70
2022-09-28T20:30:24.451Z,2.20
2022-09-28T20:32:55.487Z,6.30
2022-09-28T20:35:32.931Z,2.70
2022-09-28T20:38:09.190Z,3.00
2022-09-28T20:40:41.236Z,2.60
2022-09-28T20:43:13.456Z,2.50
2022-09-28T20:45:45.388Z,2.30
2022-09-28T20:48:17.045Z,2.00
2022-09-28T20:50:48.353Z,2.30
2022-09-28T20:53:19.561Z,2.70
2022-09-28T20:55:58.033Z,2.60
2022-09-28T20:58:29.800Z,2.50
2022-09-28T21:01:09.299Z,2.20
2022-09-28T21:03:41.233Z,2.70
2022-09-28T21:06:13.498Z,2.70
2022-09-28T21:08:45.984Z,2.90
2022-09-28T21:11:18.561Z,2.80
2022-09-28T21:13:53.083Z,2.60
2022-09-28T21:16:24.470Z,2.70
2022-09-28T21:18:55.515Z,3.00
2022-09-28T21:21:27.259Z,3.00
2022-09-28T21:23:59.219Z,3.00
2022-09-28T21:26:31.943Z,2.90
2022-09-28T21:29:05.135Z,2.80
2022-09-28T21:31:41.710Z,2.70
2022-09-28T21:34:15.287Z,3.00
2022-09-28T21:36:46.993Z,3.30
2022-09-28T21:39:18.801Z,11.50
2022-09-28T21:41:49.819Z,21.40
2022-09-28T21:44:21.123Z,16.40
2022-09-28T21:46:52.446Z,7.10
2022-09-28T21:49:23.579Z,3.60
2022-09-28T21:51:54.829Z,3.20
2022-09-28T21:54:25.922Z,3.60
2022-09-28T21:56:56.938Z,3.30
2022-09-28T21:59:28.195Z,3.10
2022-09-28T22:01:59.271Z,3.30
2022-09-28T22:04:30.536Z,2.90
2022-09-28T22:07:01.633Z,4.30
2022-09-28T22:09:32.802Z,3.80
2022-09-28T22:12:12.631Z,3.30
2022-09-28T22:14:43.727Z,3.40
2022-09-28T22:17:14.909Z,3.50
2022-09-28T22:19:45.916Z,4.00
2022-09-28T22:22:17.148Z,4.50
2022-09-28T22:24:48.252Z,4.80
2022-09-28T22:27:19.604Z,5.50
2022-09-28T22:29:51.226Z,4.90
2022-09-28T22:32:23.932Z,4.70
2022-09-28T22:34:55.780Z,5.10
2022-09-28T22:37:28.172Z,4.10
2022-09-28T22:40:00.911Z,4.80
2022-09-28T22:42:32.754Z,5.10
2022-09-28T22:45:04.080Z,4.80
2022-09-28T22:47:35.255Z,4.90
2022-09-28T22:50:08.311Z,4.60
2022-09-28T22:52:39.724Z,4.70
2022-09-28T22:55:12.918Z,5.40
2022-09-28T22:57:47.674Z,5.20
2022-09-28T23:00:19.395Z,5.60
2022-09-28T23:02:50.516Z,5.40
2022-09-28T23:05:21.482Z,7.70
2022-09-28T23:07:52.544Z,8.40
2022-09-28T23:10:24.430Z,9.60
2022-09-28T23:12:57.653Z,10.70
2022-09-28T23:15:29.895Z,10.50
2022-09-28T23:18:00.830Z,11.90
2022-09-28T23:20:32.133Z,10.30
2022-09-28T23:23:03.640Z,10.20
2022-09-28T23:25:34.642Z,9.80
2022-09-28T23:28:05.762Z,9.00
2022-09-28T23:30:36.884Z,9.20
2022-09-28T23:33:08.519Z,11.10
2022-09-28T23:35:39.608Z,12.70
2022-09-28T23:38:13.820Z,12.80
2022-09-28T23:40:45.788Z,12.60
2022-09-28T23:43:16.988Z,11.10
2022-09-28T23:45:47.976Z,11.60
2022-09-28T23:48:19.269Z,11.10
2022-09-28T23:50:50.800Z,10.70
2022-09-28T23:56:43.368Z,12.10
2022-09-28T23:59:16.706Z,10.90
